GAQ weather

Gao Airport
Gao Region, Mali

Public forecast

Using degrees Celsius for public forecast. Weather courtesy of forecast.io.

Current aviation weather report (METAR) for Gao Airport

Report is more than 6 hours old.

Retrieved 2019/08/30 16:00 UTC (6 months ago):

GAGO 301600Z /////KT SCT013 SCT020TCU 33/24 Q1009 NOSIG

Aviation forecast (TAF) for Gao Airport

Retrieved 2020/02/18 06:51 UTC (2 hours ago):

TAF TAF GAGO 180512Z 1806/1906 07010G20KT 8000 NSC PROB40 TEMPO 1807/1812 4000 DU